createdAt,value
2018-04-02T00:01:41.841Z,0
2018-04-02T00:03:44.198Z,0
2018-04-02T00:05:46.028Z,0
2018-04-02T00:07:47.862Z,0
2018-04-02T00:09:50.250Z,0
2018-04-02T00:11:52.218Z,0
2018-04-02T00:13:53.979Z,0
2018-04-02T00:15:55.682Z,0
2018-04-02T00:17:57.407Z,0
2018-04-02T00:19:59.058Z,0
2018-04-02T00:22:00.687Z,0
2018-04-02T00:24:02.438Z,0
2018-04-02T00:26:04.082Z,0
2018-04-02T00:28:06.528Z,0
2018-04-02T00:30:08.351Z,0
2018-04-02T00:32:10.328Z,0
2018-04-02T00:34:12.075Z,0
2018-04-02T00:36:14.482Z,0
2018-04-02T00:38:16.273Z,0
2018-04-02T00:40:18.688Z,0
2018-04-02T00:42:20.384Z,0
2018-04-02T00:44:22.735Z,0
2018-04-02T00:46:24.558Z,0
2018-04-02T00:48:26.330Z,0
2018-04-02T00:50:27.925Z,0
2018-04-02T00:52:29.625Z,0
2018-04-02T00:54:31.998Z,0
2018-04-02T00:56:34.252Z,0
2018-04-02T00:58:35.898Z,0
2018-04-02T01:00:37.655Z,0
2018-04-02T01:02:39.436Z,0
2018-04-02T01:04:41.185Z,0
2018-04-02T01:06:43.060Z,0
2018-04-02T01:08:44.810Z,0
2018-04-02T01:10:46.512Z,0
2018-04-02T01:12:48.861Z,0
2018-04-02T01:14:50.541Z,0
2018-04-02T01:16:52.851Z,0
2018-04-02T01:18:54.572Z,0
2018-04-02T01:20:56.336Z,0
2018-04-02T01:22:58.613Z,0
2018-04-02T01:25:00.908Z,0
2018-04-02T01:27:02.599Z,0
2018-04-02T01:29:04.395Z,0
2018-04-02T01:31:06.138Z,0
2018-04-02T01:33:07.857Z,0
2018-04-02T01:35:09.621Z,0
2018-04-02T01:37:11.294Z,0
2018-04-02T01:39:13.646Z,0
2018-04-02T01:41:15.901Z,0
2018-04-02T01:43:17.690Z,0
2018-04-02T01:45:19.375Z,0
2018-04-02T01:47:21.133Z,0
2018-04-02T01:49:23.457Z,0
2018-04-02T01:51:25.123Z,0
2018-04-02T01:53:26.847Z,0
2018-04-02T01:55:28.561Z,0
2018-04-02T01:57:30.277Z,0
2018-04-02T01:59:32.672Z,0
2018-04-02T02:01:34.517Z,0
2018-04-02T02:03:36.409Z,0
2018-04-02T02:05:38.678Z,0
2018-04-02T02:07:40.369Z,0
2018-04-02T02:09:41.969Z,0
2018-04-02T02:11:44.312Z,0
2018-04-02T02:13:46.069Z,0
2018-04-02T02:15:47.867Z,0
2018-04-02T02:17:49.669Z,0
2018-04-02T02:19:51.383Z,0
2018-04-02T02:21:53.595Z,0
2018-04-02T02:23:55.283Z,0
2018-04-02T02:25:56.962Z,0
2018-04-02T02:27:58.673Z,0
2018-04-02T02:30:00.436Z,0
2018-04-02T02:32:02.709Z,0
2018-04-02T02:34:04.553Z,0
2018-04-02T02:36:06.346Z,0
2018-04-02T02:38:08.069Z,0
2018-04-02T02:40:09.665Z,0
2018-04-02T02:42:11.308Z,0
2018-04-02T02:44:13.625Z,0
2018-04-02T02:46:15.300Z,0
2018-04-02T02:48:16.865Z,0
2018-04-02T02:50:18.671Z,0
2018-04-02T02:52:20.452Z,0
2018-04-02T02:54:22.130Z,0
2018-04-02T02:56:23.789Z,0
2018-04-02T02:58:25.547Z,0
2018-04-02T03:00:27.245Z,0
2018-04-02T03:02:28.973Z,0
2018-04-02T03:04:30.812Z,0
2018-04-02T03:06:32.653Z,0
2018-04-02T03:08:34.223Z,0
2018-04-02T03:10:36.756Z,0
2018-04-02T03:12:39.969Z,0
2018-04-02T03:14:42.354Z,0
2018-04-02T03:16:44.026Z,0
2018-04-02T03:18:45.768Z,0
2018-04-02T03:20:48.278Z,0
2018-04-02T03:22:50.004Z,0
2018-04-02T03:24:52.524Z,0
2018-04-02T03:26:54.829Z,0
2018-04-02T03:28:56.537Z,0
2018-04-02T03:30:58.322Z,0
2018-04-02T03:32:59.925Z,0
2018-04-02T03:35:01.502Z,0
2018-04-02T03:37:03.233Z,0
2018-04-02T03:39:05.012Z,0
2018-04-02T03:41:07.288Z,0
2018-04-02T03:43:08.814Z,0
2018-04-02T03:45:11.456Z,0
2018-04-02T03:47:13.286Z,0
2018-04-02T03:49:15.048Z,0
2018-04-02T03:51:16.807Z,0
2018-04-02T03:53:19.190Z,0
2018-04-02T03:55:20.873Z,0
2018-04-02T03:57:22.456Z,0
2018-04-02T03:59:24.016Z,0
2018-04-02T04:01:25.619Z,0
2018-04-02T04:03:27.289Z,0
2018-04-02T04:05:29.095Z,0
2018-04-02T04:07:30.785Z,0
2018-04-02T04:09:33.130Z,0
2018-04-02T04:11:34.906Z,0
2018-04-02T04:13:36.983Z,0
2018-04-02T04:15:39.451Z,0
2018-04-02T04:17:41.041Z,0
2018-04-02T04:19:43.457Z,0
2018-04-02T04:21:45.084Z,0
2018-04-02T04:23:46.823Z,0
2018-04-02T04:25:48.706Z,0
2018-04-02T04:27:50.375Z,0
2018-04-02T04:29:53.611Z,0
2018-04-02T04:31:55.386Z,0
2018-04-02T04:33:57.100Z,0
2018-04-02T04:35:58.819Z,0
2018-04-02T04:38:41.705Z,0
2018-04-02T04:40:43.229Z,0
2018-04-02T04:42:44.993Z,0
2018-04-02T04:44:47.475Z,0
2018-04-02T04:46:49.971Z,0
2018-04-02T04:48:52.395Z,0
2018-04-02T04:50:54.324Z,0
2018-04-02T04:52:55.815Z,0
2018-04-02T04:54:57.383Z,0
2018-04-02T04:56:58.862Z,0
2018-04-02T04:59:00.454Z,0
2018-04-02T05:01:02.042Z,0
2018-04-02T05:03:03.768Z,0
2018-04-02T05:05:05.423Z,0
2018-04-02T05:07:07.648Z,0
2018-04-02T05:09:09.440Z,0
2018-04-02T05:11:11.852Z,0
2018-04-02T05:13:13.667Z,0
2018-04-02T05:15:15.440Z,0
2018-04-02T05:17:17.714Z,0
2018-04-02T05:19:19.288Z,0
2018-04-02T05:21:20.875Z,0
2018-04-02T05:23:22.699Z,0
2018-04-02T05:25:24.406Z,0
2018-04-02T05:27:26.155Z,0
2018-04-02T05:29:28.676Z,0
2018-04-02T05:31:31.293Z,0
2018-04-02T05:33:33.042Z,0
2018-04-02T05:35:34.775Z,0
2018-04-02T05:37:36.725Z,0
2018-04-02T05:39:38.520Z,0
2018-04-02T05:41:40.148Z,5
2018-04-02T05:43:41.957Z,5
2018-04-02T05:45:43.540Z,5
2018-04-02T05:47:45.976Z,5
2018-04-02T05:49:47.665Z,5
2018-04-02T05:51:49.461Z,5
2018-04-02T05:53:51.105Z,5
2018-04-02T05:55:52.827Z,5
2018-04-02T05:57:54.586Z,10
2018-04-02T05:59:56.354Z,10
2018-04-02T06:01:58.016Z,10
2018-04-02T06:04:00.412Z,15
2018-04-02T06:06:02.185Z,20
2018-04-02T06:08:03.941Z,25
2018-04-02T06:10:05.627Z,25
2018-04-02T06:12:07.412Z,25
2018-04-02T06:14:09.149Z,25
2018-04-02T06:16:10.911Z,25
2018-04-02T06:18:12.589Z,25
2018-04-02T06:20:14.943Z,25
2018-04-02T06:22:16.648Z,25
2018-04-02T06:24:18.504Z,25
2018-04-02T06:26:20.307Z,25
2018-04-02T06:28:22.082Z,20
2018-04-02T06:30:23.883Z,20
2018-04-02T06:32:26.149Z,15
2018-04-02T06:34:27.984Z,15
2018-04-02T06:36:29.883Z,15
2018-04-02T06:38:33.035Z,20
2018-04-02T06:40:34.982Z,20
2018-04-02T06:42:36.883Z,20
2018-04-02T06:44:38.461Z,20
2018-04-02T06:46:40.088Z,25
2018-04-02T06:48:41.924Z,25
2018-04-02T06:50:43.782Z,30
2018-04-02T06:52:45.828Z,45
2018-04-02T06:54:47.659Z,50
2018-04-02T06:56:50.760Z,55
2018-04-02T06:58:52.560Z,50
2018-04-02T07:00:54.251Z,45
2018-04-02T07:02:56.443Z,40
2018-04-02T07:04:58.205Z,30
2018-04-02T07:06:59.932Z,30
2018-04-02T07:09:01.773Z,25
2018-04-02T07:11:03.758Z,25
2018-04-02T07:13:05.514Z,20
2018-04-02T07:15:07.455Z,20
2018-04-02T07:17:09.245Z,20
2018-04-02T07:19:10.985Z,25
2018-04-02T07:21:12.664Z,25
2018-04-02T07:23:14.503Z,25
2018-04-02T07:25:16.254Z,30
2018-04-02T07:27:17.899Z,30
2018-04-02T07:29:19.589Z,40
2018-04-02T07:31:21.203Z,50
2018-04-02T07:33:23.647Z,50
2018-04-02T07:35:25.327Z,50
2018-04-02T07:37:27.009Z,65
2018-04-02T07:39:28.904Z,85
2018-04-02T07:41:31.673Z,90
2018-04-02T07:43:33.476Z,80
2018-04-02T07:45:35.176Z,80
2018-04-02T07:47:37.139Z,85
2018-04-02T07:49:38.837Z,80
2018-04-02T07:51:40.804Z,75
2018-04-02T07:53:42.579Z,70
2018-04-02T07:55:44.282Z,80
2018-04-02T07:57:45.979Z,85
2018-04-02T07:59:47.780Z,90
2018-04-02T08:01:49.615Z,100
2018-04-02T08:03:51.344Z,110
2018-04-02T08:05:53.503Z,105
2018-04-02T08:07:55.161Z,105
2018-04-02T08:09:57.220Z,100
2018-04-02T08:11:58.763Z,90
2018-04-02T08:14:00.285Z,90
2018-04-02T08:16:02.486Z,90
2018-04-02T08:18:04.117Z,105
2018-04-02T08:20:05.779Z,105
2018-04-02T08:22:07.452Z,165
2018-04-02T08:24:09.085Z,155
2018-04-02T08:26:10.802Z,205
2018-04-02T08:28:12.826Z,175
2018-04-02T08:30:14.457Z,155
2018-04-02T08:32:16.399Z,125
2018-04-02T08:34:18.086Z,100
2018-04-02T08:36:20.040Z,90
2018-04-02T08:38:21.882Z,85
2018-04-02T08:40:23.530Z,85
2018-04-02T08:42:25.236Z,85
2018-04-02T08:44:27.051Z,90
2018-04-02T08:46:28.684Z,85
2018-04-02T08:48:30.335Z,80
2018-04-02T08:50:32.205Z,85
2018-04-02T08:52:34.097Z,90
2018-04-02T08:54:35.817Z,90
2018-04-02T08:56:37.527Z,100
2018-04-02T08:58:39.189Z,105
2018-04-02T09:00:40.978Z,120
2018-04-02T09:02:42.771Z,120
2018-04-02T09:04:44.651Z,105
2018-04-02T09:06:46.433Z,95
2018-04-02T09:08:48.515Z,100
2018-04-02T09:10:50.277Z,105
2018-04-02T09:12:52.038Z,105
2018-04-02T09:14:54.024Z,90
2018-04-02T09:16:55.759Z,90
2018-04-02T09:18:58.420Z,110
2018-04-02T09:21:00.180Z,120
2018-04-02T09:23:02.052Z,105
2018-04-02T09:25:03.887Z,95
2018-04-02T09:27:05.795Z,90
2018-04-02T09:29:07.500Z,100
2018-04-02T09:31:09.317Z,85
2018-04-02T09:33:11.014Z,80
2018-04-02T09:35:13.096Z,75
2018-04-02T09:37:14.916Z,80
2018-04-02T09:39:16.770Z,80
2018-04-02T09:41:18.493Z,75
2018-04-02T09:43:20.247Z,70
2018-04-02T09:45:22.457Z,65
2018-04-02T09:47:24.312Z,65
2018-04-02T09:49:26.150Z,75
2018-04-02T09:51:27.876Z,90
2018-04-02T09:53:29.611Z,100
2018-04-02T09:55:31.632Z,105
2018-04-02T09:57:33.408Z,110
2018-04-02T09:59:35.341Z,110
2018-04-02T10:01:37.571Z,120
2018-04-02T10:03:39.607Z,125
2018-04-02T10:05:41.756Z,125
2018-04-02T10:07:43.539Z,135
2018-04-02T10:09:45.263Z,140
2018-04-02T10:11:47.386Z,145
2018-04-02T10:13:49.564Z,145
2018-04-02T10:15:51.382Z,180
2018-04-02T10:17:53.182Z,185
2018-04-02T10:19:54.985Z,180
2018-04-02T10:21:56.748Z,170
2018-04-02T10:23:58.578Z,170
2018-04-02T10:26:00.900Z,160
2018-04-02T10:28:02.618Z,160
2018-04-02T10:30:04.780Z,155
2018-04-02T10:32:06.645Z,140
2018-04-02T10:34:08.482Z,150
2018-04-02T10:36:10.379Z,160
2018-04-02T10:38:55.074Z,155
2018-04-02T10:40:56.658Z,170
2018-04-02T10:42:58.308Z,185
2018-04-02T10:44:59.883Z,190
2018-04-02T10:47:02.314Z,180
2018-04-02T10:49:04.559Z,170
2018-04-02T10:51:06.876Z,140
2018-04-02T10:53:09.158Z,135
2018-04-02T10:55:11.588Z,205
2018-04-02T10:57:13.333Z,150
2018-04-02T10:59:15.112Z,145
2018-04-02T11:01:16.922Z,140
2018-04-02T11:03:18.511Z,115
2018-04-02T11:05:20.779Z,110
2018-04-02T11:07:22.586Z,110
2018-04-02T11:09:24.493Z,110
2018-04-02T11:11:26.273Z,110
2018-04-02T11:13:28.576Z,95
2018-04-02T11:15:30.353Z,90
2018-04-02T11:17:32.276Z,85
2018-04-02T11:19:34.096Z,80
2018-04-02T11:21:35.967Z,80
2018-04-02T11:23:37.693Z,80
2018-04-02T11:25:39.520Z,75
2018-04-02T11:27:41.254Z,70
2018-04-02T11:29:43.139Z,65
2018-04-02T11:31:44.935Z,60
2018-04-02T11:33:47.112Z,55
2018-04-02T11:35:48.935Z,55
2018-04-02T11:37:50.845Z,50
2018-04-02T11:39:52.721Z,50
2018-04-02T11:41:54.439Z,50
2018-04-02T11:43:56.089Z,45
2018-04-02T11:45:57.839Z,45
2018-04-02T11:47:59.653Z,50
2018-04-02T11:50:01.450Z,55
2018-04-02T11:52:03.317Z,65
2018-04-02T11:54:05.094Z,75
2018-04-02T11:56:06.736Z,80
2018-04-02T11:58:08.465Z,80
2018-04-02T12:00:10.225Z,75
2018-04-02T12:02:12.601Z,65
2018-04-02T12:04:14.368Z,60
2018-04-02T12:06:16.467Z,60
2018-04-02T12:08:18.732Z,65
2018-04-02T12:10:20.670Z,65
2018-04-02T12:12:22.558Z,70
2018-04-02T12:14:24.329Z,75
2018-04-02T12:16:26.142Z,85
2018-04-02T12:18:27.951Z,90
2018-04-02T12:20:30.263Z,105
2018-04-02T12:22:32.831Z,90
2018-04-02T12:24:35.074Z,90
2018-04-02T12:26:37.089Z,90
2018-04-02T12:28:39.251Z,75
2018-04-02T12:30:41.116Z,65
2018-04-02T12:32:42.888Z,55
2018-04-02T12:34:45.004Z,55
2018-04-02T12:36:46.901Z,55
2018-04-02T12:38:48.681Z,50
2018-04-02T12:40:51.105Z,50
2018-04-02T12:42:52.788Z,45
2018-04-02T12:44:54.589Z,45
2018-04-02T12:46:56.931Z,45
2018-04-02T12:48:58.832Z,45
2018-04-02T12:51:00.618Z,50
2018-04-02T12:53:02.768Z,55
2018-04-02T12:55:04.545Z,70
2018-04-02T12:57:06.438Z,60
2018-04-02T12:59:08.172Z,65
2018-04-02T13:01:10.003Z,65
2018-04-02T13:03:12.368Z,70
2018-04-02T13:05:14.178Z,65
2018-04-02T13:07:15.946Z,65
2018-04-02T13:09:17.770Z,70
2018-04-02T13:11:19.540Z,65
2018-04-02T13:13:21.896Z,55
2018-04-02T13:15:23.734Z,50
2018-04-02T13:17:25.493Z,50
2018-04-02T13:19:27.360Z,50
2018-04-02T13:21:29.627Z,50
2018-04-02T13:23:31.411Z,50
2018-04-02T13:25:33.171Z,50
2018-04-02T13:27:34.961Z,50
2018-04-02T13:29:36.703Z,55
2018-04-02T13:31:38.495Z,55
2018-04-02T13:33:40.271Z,55
2018-04-02T13:35:42.521Z,55
2018-04-02T13:37:44.332Z,50
2018-04-02T13:39:46.764Z,50
2018-04-02T13:41:48.553Z,50
2018-04-02T13:43:50.480Z,55
2018-04-02T13:45:52.273Z,60
2018-04-02T13:47:54.754Z,50
2018-04-02T13:49:56.521Z,50
2018-04-02T13:51:58.293Z,50
2018-04-02T13:54:00.496Z,50
2018-04-02T13:56:02.237Z,50
2018-04-02T13:58:04.060Z,50
2018-04-02T14:00:05.904Z,60
2018-04-02T14:02:07.819Z,60
2018-04-02T14:04:09.620Z,55
2018-04-02T14:06:11.307Z,55
2018-04-02T14:08:13.052Z,55
2018-04-02T14:10:15.318Z,50
2018-04-02T14:12:17.052Z,50
2018-04-02T14:14:18.902Z,50
2018-04-02T14:16:20.694Z,50
2018-04-02T14:18:22.440Z,50
2018-04-02T14:20:24.271Z,50
2018-04-02T14:22:26.083Z,55
2018-04-02T14:24:27.869Z,55
2018-04-02T14:26:29.671Z,50
2018-04-02T14:28:31.523Z,50
2018-04-02T14:30:33.677Z,45
2018-04-02T14:32:35.423Z,40
2018-04-02T14:34:37.222Z,35
2018-04-02T14:36:39.011Z,35
2018-04-02T14:38:40.863Z,35
2018-04-02T14:40:42.611Z,30
2018-04-02T14:42:44.407Z,30
2018-04-02T14:44:46.159Z,30
2018-04-02T14:46:47.962Z,30
2018-04-02T14:48:49.798Z,30
2018-04-02T14:50:51.605Z,30
2018-04-02T14:52:53.480Z,30
2018-04-02T14:54:55.299Z,30
2018-04-02T14:56:57.064Z,30
2018-04-02T14:58:58.895Z,30
2018-04-02T15:01:00.736Z,30
2018-04-02T15:03:02.980Z,30
2018-04-02T15:05:04.783Z,30
2018-04-02T15:07:06.653Z,30
2018-04-02T15:09:08.308Z,30
2018-04-02T15:11:10.654Z,30
2018-04-02T15:13:12.326Z,30
2018-04-02T15:15:14.646Z,25
2018-04-02T15:17:16.973Z,25
2018-04-02T15:19:19.120Z,25
2018-04-02T15:21:21.436Z,30
2018-04-02T15:23:23.271Z,30
2018-04-02T15:25:25.120Z,30
2018-04-02T15:27:26.903Z,30
2018-04-02T15:29:28.755Z,30
2018-04-02T15:31:30.598Z,30
2018-04-02T15:33:33.312Z,30
2018-04-02T15:35:35.129Z,30
2018-04-02T15:37:37.268Z,30
2018-04-02T15:39:39.686Z,25
2018-04-02T15:41:41.881Z,25
2018-04-02T15:43:43.755Z,25
2018-04-02T15:45:45.564Z,25
2018-04-02T15:47:47.887Z,25
2018-04-02T15:49:49.751Z,25
2018-04-02T15:51:51.566Z,25
2018-04-02T15:53:53.731Z,25
2018-04-02T15:55:55.554Z,30
2018-04-02T15:57:57.293Z,30
2018-04-02T15:59:59.084Z,30
2018-04-02T16:02:01.239Z,30
2018-04-02T16:04:03.044Z,30
2018-04-02T16:06:04.823Z,30
2018-04-02T16:08:06.565Z,30
2018-04-02T16:10:08.426Z,30
2018-04-02T16:12:10.237Z,25
2018-04-02T16:14:12.542Z,25
2018-04-02T16:16:14.956Z,20
2018-04-02T16:18:16.700Z,15
2018-04-02T16:20:18.472Z,15
2018-04-02T16:22:20.160Z,10
2018-04-02T16:24:21.955Z,10
2018-04-02T16:26:23.794Z,10
2018-04-02T16:28:26.083Z,10
2018-04-02T16:30:28.214Z,10
2018-04-02T16:32:29.925Z,10
2018-04-02T16:34:31.495Z,10
2018-04-02T16:36:33.156Z,10
2018-04-02T16:38:34.852Z,10
2018-04-02T16:40:36.888Z,10
2018-04-02T16:42:39.330Z,10
2018-04-02T16:44:41.122Z,10
2018-04-02T16:46:43.254Z,10
2018-04-02T16:48:45.391Z,10
2018-04-02T16:50:47.620Z,10
2018-04-02T16:52:49.789Z,10
2018-04-02T16:54:51.451Z,10
2018-04-02T16:56:53.796Z,10
2018-04-02T16:58:55.562Z,10
2018-04-02T17:00:57.319Z,10
2018-04-02T17:02:58.984Z,10
2018-04-02T17:05:00.871Z,10
2018-04-02T17:07:02.619Z,5
2018-04-02T17:09:04.434Z,5
2018-04-02T17:11:06.125Z,5
2018-04-02T17:13:08.021Z,5
2018-04-02T17:15:10.112Z,5
2018-04-02T17:17:11.997Z,5
2018-04-02T17:19:14.327Z,5
2018-04-02T17:21:16.177Z,5
2018-04-02T17:23:17.934Z,5
2018-04-02T17:25:19.761Z,5
2018-04-02T17:27:21.825Z,5
2018-04-02T17:29:23.663Z,5
2018-04-02T17:31:25.498Z,5
2018-04-02T17:33:27.169Z,0
2018-04-02T17:35:28.859Z,0
2018-04-02T17:37:30.618Z,0
2018-04-02T17:39:32.497Z,0
2018-04-02T17:41:34.304Z,0
2018-04-02T17:43:36.542Z,0
2018-04-02T17:45:38.722Z,0
2018-04-02T17:47:40.465Z,0
2018-04-02T17:49:42.238Z,0
2018-04-02T17:51:44.051Z,0
2018-04-02T17:53:45.718Z,0
2018-04-02T17:55:47.968Z,0
2018-04-02T17:57:50.023Z,0
2018-04-02T17:59:51.857Z,0
2018-04-02T18:01:54.011Z,0
2018-04-02T18:03:55.840Z,0
2018-04-02T18:05:58.060Z,0
2018-04-02T18:07:59.775Z,0
2018-04-02T18:10:01.522Z,0
2018-04-02T18:12:03.240Z,0
2018-04-02T18:14:05.044Z,0
2018-04-02T18:16:06.834Z,0
2018-04-02T18:18:08.650Z,0
2018-04-02T18:20:10.943Z,0
2018-04-02T18:22:12.645Z,0
2018-04-02T18:24:14.469Z,0
2018-04-02T18:26:16.172Z,0
2018-04-02T18:28:17.925Z,0
2018-04-02T18:30:19.732Z,0
2018-04-02T18:32:21.492Z,0
2018-04-02T18:34:23.333Z,0
2018-04-02T18:36:25.074Z,0
2018-04-02T18:38:27.160Z,0
2018-04-02T18:40:28.976Z,0
2018-04-02T18:42:31.105Z,0
2018-04-02T18:44:32.892Z,0
2018-04-02T18:46:34.724Z,0
2018-04-02T18:48:36.774Z,0
2018-04-02T18:50:38.591Z,0
2018-04-02T18:52:40.349Z,0
2018-04-02T18:54:42.086Z,0
2018-04-02T18:56:43.869Z,0
2018-04-02T18:58:45.670Z,0
2018-04-02T19:00:47.401Z,0
2018-04-02T19:02:49.173Z,0
2018-04-02T19:04:51.390Z,0
2018-04-02T19:06:53.165Z,0
2018-04-02T19:08:55.013Z,0
2018-04-02T19:10:56.791Z,0
2018-04-02T19:12:58.584Z,0
2018-04-02T19:15:00.432Z,0
2018-04-02T19:17:02.210Z,0
2018-04-02T19:19:04.003Z,0
2018-04-02T19:21:05.774Z,0
2018-04-02T19:23:07.806Z,0
2018-04-02T19:25:09.554Z,0
2018-04-02T19:27:11.356Z,0
2018-04-02T19:29:13.135Z,0
2018-04-02T19:31:14.834Z,0
2018-04-02T19:33:16.648Z,0
2018-04-02T19:35:18.529Z,0
2018-04-02T19:37:20.196Z,0
2018-04-02T19:39:22.333Z,0
2018-04-02T19:41:24.514Z,0
2018-04-02T19:43:26.339Z,0
2018-04-02T19:45:28.105Z,0
2018-04-02T19:47:29.849Z,0
2018-04-02T19:49:32.057Z,0
2018-04-02T19:51:33.870Z,0
2018-04-02T19:53:35.616Z,0
2018-04-02T19:55:37.396Z,0
2018-04-02T19:57:39.511Z,0
2018-04-02T19:59:41.505Z,0
2018-04-02T20:01:43.179Z,0
2018-04-02T20:03:44.925Z,0
2018-04-02T20:05:46.700Z,0
2018-04-02T20:07:48.597Z,0
2018-04-02T20:09:50.230Z,0
2018-04-02T20:11:51.936Z,0
2018-04-02T20:13:53.548Z,0
2018-04-02T20:15:55.856Z,0
2018-04-02T20:17:57.579Z,0
2018-04-02T20:19:59.782Z,0
2018-04-02T20:22:01.566Z,0
2018-04-02T20:24:03.315Z,0
2018-04-02T20:26:05.062Z,0
2018-04-02T20:28:06.783Z,0
2018-04-02T20:30:08.441Z,0
2018-04-02T20:32:10.186Z,0
2018-04-02T20:34:12.084Z,0
2018-04-02T20:36:14.345Z,0
2018-04-02T20:38:16.179Z,0
2018-04-02T20:40:17.996Z,0
2018-04-02T20:42:19.690Z,0
2018-04-02T20:44:21.418Z,0
2018-04-02T20:46:23.208Z,0
2018-04-02T20:48:24.986Z,0
2018-04-02T20:50:27.106Z,0
2018-04-02T20:52:28.888Z,0
2018-04-02T20:54:30.757Z,0
2018-04-02T20:56:32.548Z,0
2018-04-02T20:58:34.275Z,0
2018-04-02T21:00:39.655Z,0
2018-04-02T21:02:42.324Z,0
2018-04-02T21:04:44.113Z,0
2018-04-02T21:06:45.909Z,0
2018-04-02T21:08:47.633Z,0
2018-04-02T21:10:49.386Z,0
2018-04-02T21:12:51.211Z,0
2018-04-02T21:14:52.948Z,0
2018-04-02T21:16:54.745Z,0
2018-04-02T21:18:56.565Z,0
2018-04-02T21:20:58.343Z,0
2018-04-02T21:23:00.142Z,0
2018-04-02T21:25:01.893Z,0
2018-04-02T21:27:03.702Z,0
2018-04-02T21:29:05.565Z,0
2018-04-02T21:31:07.298Z,0
2018-04-02T21:33:09.178Z,0
2018-04-02T21:35:11.077Z,0
2018-04-02T21:37:12.903Z,0
2018-04-02T21:39:14.695Z,0
2018-04-02T21:41:16.937Z,0
2018-04-02T21:43:18.820Z,0
2018-04-02T21:45:20.570Z,0
2018-04-02T21:47:22.329Z,0
2018-04-02T21:49:24.160Z,0
2018-04-02T21:51:25.897Z,0
2018-04-02T21:53:28.799Z,0
2018-04-02T21:55:31.222Z,0
2018-04-02T21:57:32.930Z,0
2018-04-02T21:59:34.809Z,0
2018-04-02T22:01:36.890Z,0
2018-04-02T22:03:38.709Z,0
2018-04-02T22:05:41.039Z,0
2018-04-02T22:07:42.713Z,0
2018-04-02T22:09:44.563Z,0
2018-04-02T22:11:46.314Z,0
2018-04-02T22:13:48.604Z,0
2018-04-02T22:15:50.411Z,0
2018-04-02T22:17:52.202Z,0
2018-04-02T22:19:54.027Z,0
2018-04-02T22:21:55.964Z,0
2018-04-02T22:23:57.650Z,0
2018-04-02T22:25:59.366Z,0
2018-04-02T22:28:01.121Z,0
2018-04-02T22:30:02.834Z,0
2018-04-02T22:32:04.516Z,0
2018-04-02T22:34:06.267Z,0
2018-04-02T22:36:08.008Z,0
2018-04-02T22:38:51.474Z,0
2018-04-02T22:40:53.085Z,0
2018-04-02T22:42:54.571Z,0
2018-04-02T22:44:56.116Z,0
2018-04-02T22:46:58.266Z,0
2018-04-02T22:48:59.950Z,0
2018-04-02T22:51:01.723Z,0
2018-04-02T22:53:03.901Z,0
2018-04-02T22:55:05.592Z,0
2018-04-02T22:57:07.640Z,0
2018-04-02T22:59:09.246Z,0
2018-04-02T23:01:11.006Z,0
2018-04-02T23:03:12.789Z,0
2018-04-02T23:05:14.693Z,0
2018-04-02T23:07:16.379Z,0
2018-04-02T23:09:18.167Z,0
2018-04-02T23:11:19.910Z,0
2018-04-02T23:13:22.411Z,0
2018-04-02T23:15:24.178Z,0
2018-04-02T23:17:25.925Z,0
2018-04-02T23:19:28.156Z,0
2018-04-02T23:21:30.609Z,0
2018-04-02T23:23:32.363Z,0
2018-04-02T23:25:34.924Z,0
2018-04-02T23:27:36.739Z,0
2018-04-02T23:29:38.490Z,0
2018-04-02T23:31:40.236Z,0
2018-04-02T23:33:42.001Z,0
2018-04-02T23:35:43.798Z,0
2018-04-02T23:37:46.498Z,0
2018-04-02T23:39:48.251Z,0
2018-04-02T23:41:49.975Z,0
2018-04-02T23:43:51.772Z,0
2018-04-02T23:45:54.257Z,0
2018-04-02T23:47:56.113Z,0
2018-04-02T23:49:57.793Z,0
2018-04-02T23:51:59.563Z,0
2018-04-02T23:54:01.769Z,0
2018-04-02T23:56:03.534Z,0
2018-04-02T23:58:05.965Z,0
